Sierra, Nevada
Current Conditions -  °F | °C
As of 10:15 PM on Friday 28 Nov 2014 (Local Time) from KRTS Reporting Station
Broken Clouds Broken Clouds  
Wind Chill: 37°   Ceiling: 7500
Heat Index: 46°   Visibility: 10mi
Dew Point: 19°   Wind: 32mph
Humidity: 34%   Direction: 240°WSW
Pressure: 29.81"   Gusts: 49mph
Location:  39.7378°N, 119.889°W
Report Text: KRTS 290615Z AUTO 24028G43KT 10SM FEW031 SCT050 BKN075 08/M07 A2981 RMK AO2
Loading
Personal Weather Stations






























Interactive Weather Map New forecast layout! Learn more

10-Day Weather Forecast

Advertisements
Track Severe Weather on mobile